地図

経路データ

SID SEASON NUMBER BASIN SUBBASIN NAME ISO_TIME NATURE LAT LON WMO_WIND WMO_PRES WMO_AGENCY TRACK_TYPE DIST2LAND LANDFALL IFLAG USA_AGENCY USA_ATCF_ID USA_LAT USA_LON USA_RECORD USA_STATUS USA_WIND USA_PRES USA_SSHS USA_R34_NE USA_R34_SE USA_R34_SW USA_R34_NW USA_R50_NE USA_R50_SE USA_R50_SW USA_R50_NW USA_R64_NE USA_R64_SE USA_R64_SW USA_R64_NW USA_POCI USA_ROCI USA_RMW USA_EYE TOKYO_LAT TOKYO_LON TOKYO_GRADE TOKYO_WIND TOKYO_PRES TOKYO_R50_DIR TOKYO_R50_LONG TOKYO_R50_SHORT TOKYO_R30_DIR TOKYO_R30_LONG TOKYO_R30_SHORT TOKYO_LAND CMA_LAT CMA_LON CMA_CAT CMA_WIND CMA_PRES HKO_LAT HKO_LON HKO_CAT HKO_WIND HKO_PRES NEWDELHI_LAT NEWDELHI_LON NEWDELHI_GRADE NEWDELHI_WIND NEWDELHI_PRES NEWDELHI_CI NEWDELHI_DP NEWDELHI_POCI REUNION_LAT REUNION_LON REUNION_TYPE REUNION_WIND REUNION_PRES REUNION_TNUM REUNION_CI REUNION_RMW REUNION_R34_NE REUNION_R34_SE REUNION_R34_SW REUNION_R34_NW REUNION_R50_NE REUNION_R50_SE REUNION_R50_SW REUNION_R50_NW REUNION_R64_NE REUNION_R64_SE REUNION_R64_SW REUNION_R64_NW BOM_LAT BOM_LON BOM_TYPE BOM_WIND BOM_PRES BOM_TNUM BOM_CI BOM_RMW BOM_R34_NE BOM_R34_SE BOM_R34_SW BOM_R34_NW BOM_R50_NE BOM_R50_SE BOM_R50_SW BOM_R50_NW BOM_R64_NE BOM_R64_SE BOM_R64_SW BOM_R64_NW BOM_ROCI BOM_POCI BOM_EYE BOM_POS_METHOD BOM_PRES_METHOD NADI_LAT NADI_LON NADI_CAT NADI_WIND NADI_PRES WELLINGTON_LAT WELLINGTON_LON WELLINGTON_WIND WELLINGTON_PRES DS824_LAT DS824_LON DS824_STAGE DS824_WIND DS824_PRES TD9636_LAT TD9636_LON TD9636_STAGE TD9636_WIND TD9636_PRES TD9635_LAT TD9635_LON TD9635_WIND TD9635_PRES TD9635_ROCI NEUMANN_LAT NEUMANN_LON NEUMANN_CLASS NEUMANN_WIND NEUMANN_PRES MLC_LAT MLC_LON MLC_CLASS MLC_WIND MLC_PRES USA_GUST BOM_GUST BOM_GUST_PER REUNION_GUST REUNION_GUST_PER USA_SEAHGT USA_SEARAD_NE USA_SEARAD_SE USA_SEARAD_SW USA_SEARAD_NW STORM_SPEED STORM_DIR
1975153N14261 1975 42 EP MM AGATHA 1975-06-02 00:00:00 TS 13.5000 -99.0000 30 1005 hurdat_epa main 308 308 O________OO___ hurdat_epa EP011975 13.5000 -99.0000 TD 30 1005 -1 13.5000 -99.0000 TC 30 1005 13.5000 -99.0000 1 30 4 241
1975153N14261 1975 42 EP MM AGATHA 1975-06-02 03:00:00 TS 13.3955 -99.1958 main 327 327 P________PP___ EP011975 13.3900 -99.1900 TD 30 -1 13.3900 -99.1900 TC 30 13.4174 -99.2187 1 30 4 244
1975153N14261 1975 42 EP MM AGATHA 1975-06-02 06:00:00 TS 13.3075 -99.4080 30 hurdat_epa main 346 346 O________OP___ hurdat_epa EP011975 13.3000 -99.4000 TD 30 -1 13.3000 -99.4000 TC 30 13.3377 -99.4399 1 30 5 251
1975153N14261 1975 42 EP MM AGATHA 1975-06-02 09:00:00 TS 13.2468 -99.6472 main 363 363 P________PP___ EP011975 13.2425 -99.6425 TD 30 -1 13.2425 -99.6425 TC 30 13.2642 -99.6661 1 30 5 257
1975153N14261 1975 42 EP MM AGATHA 1975-06-02 12:00:00 TS 13.2000 -99.9000 30 hurdat_epa main 374 374 O________OO___ hurdat_epa EP011975 13.2000 -99.9000 TD 30 -1 13.2000 -99.9000 TC 30 13.2000 -99.9000 1 30 5 257
1975153N14261 1975 42 EP MM AGATHA 1975-06-02 15:00:00 TS 13.1322 -100.143 main 392 392 P________PP___ EP011975 13.1275 -100.143 TD 30 -1 13.1275 -100.143 TC 30 13.1514 -100.145 1 32 5 259
1975153N14261 1975 42 EP MM AGATHA 1975-06-02 18:00:00 TS 13.1075 -100.401 30 hurdat_epa main 407 407 O________OP___ hurdat_epa EP011975 13.1000 -100.400 TD 30 -1 13.1000 -100.400 TC 30 13.1373 -100.406 1 35 5 272
1975153N14261 1975 42 EP MM AGATHA 1975-06-02 21:00:00 TS 13.1539 -100.686 main 406 401 P________PP___ EP011975 13.1475 -100.685 TD 30 -1 13.1475 -100.685 TC 30 13.1795 -100.689 1 37 6 288
1975153N14261 1975 42 EP MM AGATHA 1975-06-03 00:00:00 TS 13.3000 -101.000 30 hurdat_epa main 405 392 O________OO___ hurdat_epa EP011975 13.3000 -101.000 TD 30 -1 13.3000 -101.000 TC 30 13.3000 -101.000 2 40 8 303
1975153N14261 1975 42 EP MM AGATHA 1975-06-03 03:00:00 TS 13.5593 -101.336 main 387 379 P________PP___ EP011975 13.5700 -101.335 TD 32 -1 13.5700 -101.335 TC 32 13.5169 -101.342 2 43 9 310
1975153N14261 1975 42 EP MM AGATHA 1975-06-03 06:00:00 TS 13.8820 -101.702 35 hurdat_epa main 379 359 O________OP___ hurdat_epa EP011975 13.9000 -101.700 TS 35 0 13.9000 -101.700 TC 35 13.8100 -101.712 2 47 10 311
1975153N14261 1975 42 EP MM AGATHA 1975-06-03 09:00:00 TS 14.1896 -102.094 main 363 347 P________PP___ EP011975 14.2000 -102.093 TS 37 0 14.2000 -102.093 TC 37 14.1481 -102.101 2 51 10 309
1975153N14261 1975 42 EP MM AGATHA 1975-06-03 12:00:00 TS 14.5000 -102.500 40 hurdat_epa main 347 337 O________OO___ hurdat_epa EP011975 14.5000 -102.500 TS 40 0 14.5000 -102.500 TC 40 14.5000 -102.500 2 55 10 308
1975153N14261 1975 42 EP MM AGATHA 1975-06-03 15:00:00 TS 14.7967 -102.907 main 339 327 P________PP___ EP011975 14.7924 -102.900 TS 42 0 14.7924 -102.900 TC 42 14.8140 -102.933 2 58 10 308
1975153N14261 1975 42 EP MM AGATHA 1975-06-03 18:00:00 TS 15.1071 -103.313 45 hurdat_epa main 331 309 O________OP___ hurdat_epa EP011975 15.1000 -103.300 TS 45 0 15.1000 -103.300 TC 45 15.1354 -103.367 2 62 10 309
1975153N14261 1975 42 EP MM AGATHA 1975-06-03 21:00:00 TS 15.4469 -103.737 main 313 285 P________PP___ EP011975 15.4426 -103.730 TS 57 0 15.4426 -103.730 TC 57 15.4641 -103.768 2 66 10 312
1975153N14261 1975 42 EP MM AGATHA 1975-06-04 00:00:00 TS 15.8000 -104.100 70 hurdat_epa main 285 260 O________OO___ hurdat_epa EP011975 15.8000 -104.100 HU 70 1 15.8000 -104.100 TC 70 15.8000 -104.100 4 70 9 320
1975153N14261 1975 42 EP MM AGATHA 1975-06-04 03:00:00 TS 16.1525 -104.343 main 249 227 P________PP___ EP011975 16.1499 -104.345 HU 67 1 16.1499 -104.345 TC 67 16.1627 -104.334 4 66 8 332
1975153N14261 1975 42 EP MM AGATHA 1975-06-04 06:00:00 TS 16.5059 -104.500 65 hurdat_epa main 227 204 O________OP___ hurdat_epa EP011975 16.5000 -104.500 HU 65 1 16.5000 -104.500 TC 65 16.5295 -104.498 4 62 8 340
1975153N14261 1975 42 EP MM AGATHA 1975-06-04 09:00:00 TS 16.8683 -104.621 main 195 176 P________PP___ EP011975 16.8650 -104.623 HU 60 0 16.8650 -104.623 TC 60 16.8816 -104.612 4 58 7 345
1975153N14261 1975 42 EP MM AGATHA 1975-06-04 12:00:00 TS 17.2000 -104.700 55 hurdat_epa main 176 155 O________OO___ hurdat_epa EP011975 17.2000 -104.700 TS 55 0 17.2000 -104.700 TC 55 17.2000 -104.700 2 55 6 348
1975153N14261 1975 42 EP MM AGATHA 1975-06-04 15:00:00 TS 17.4701 -104.752 main 164 153 P________PP___ EP011975 17.4725 -104.750 TS 52 0 17.4725 -104.750 TC 52 17.4607 -104.761 2 53 5 349
1975153N14261 1975 42 EP MM AGATHA 1975-06-04 18:00:00 TS 17.6974 -104.801 50 hurdat_epa main 153 133 O________OP___ hurdat_epa EP011975 17.7000 -104.800 TS 50 0 17.7000 -104.800 TC 50 17.6871 -104.806 2 52 4 346
1975153N14261 1975 42 EP MM AGATHA 1975-06-04 21:00:00 TS 17.8869 -104.865 main 138 124 P________PP___ EP011975 17.8849 -104.863 TS 50 0 17.8849 -104.863 TC 50 17.8950 -104.873 2 51 4 335
1975153N14261 1975 42 EP MM AGATHA 1975-06-05 00:00:00 TS 18.1000 -105.000 50 hurdat_epa main 124 98 O________OO___ hurdat_epa EP011975 18.1000 -105.000 TS 50 0 18.1000 -105.000 TC 50 18.1000 -105.000 2 50 6 325
1975153N14261 1975 42 EP MM AGATHA 1975-06-05 03:00:00 TS 18.3966 -105.239 main 98 92 P________PP___ EP011975 18.4123 -105.233 TS 47 0 18.4123 -105.233 TC 47 18.3336 -105.263 2 46 9 319
1975153N14261 1975 42 EP MM AGATHA 1975-06-05 06:00:00 TS 18.7414 -105.596 45 hurdat_epa main 99 92 O________OP___ hurdat_epa EP011975 18.8000 -105.600 TS 45 0 18.8000 -105.600 TC 45 18.5657 -105.584 2 42 10 312
1975153N14261 1975 42 EP MM AGATHA 1975-06-05 09:00:00 TS 19.0886 -106.044 main 99 99 P________PP___ EP011975 19.2380 -106.109 TS 37 0 19.2380 -106.109 TC 37 18.7899 -105.913 2 38 10 307
1975153N14261 1975 42 EP MM AGATHA 1975-06-05 12:00:00 TS 19.3500 -106.450 30 hurdat_epa main 124 122 O________OO___ hurdat_epa EP011975 19.7000 -106.700 TD 30 -1 19.7000 -106.700 TC 30 19.0000 -106.200 2 35 4 287
1975153N14261 1975 42 EP MM AGATHA 1975-06-05 15:00:00 NR 19.1921 -106.406 main 128 124 __________P___ EP011975 TD -1 TC 19.1921 -106.406 2 33 1 283
1975153N14261 1975 42 EP MM AGATHA 1975-06-05 18:00:00 NR 19.3695 -106.543 main 124 124 __________P___ 19.3695 -106.543 2 32 4 328
1975153N14261 1975 42 EP MM AGATHA 1975-06-05 21:00:00 NR 19.5372 -106.633 main 127 123 __________P___ 19.5372 -106.633 2 31 4 336
1975153N14261 1975 42 EP MM AGATHA 1975-06-06 00:00:00 NR 19.7000 -106.700 main 129 __________O___ 19.7000 -106.700 1 30 4 337

IBTrACS Databaseについて

本データベースは、米国NOAAが公開する1842年以降の世界の熱帯低気圧のベストトラックデータアーカイブInternational Best Track Archive for Climate Stewardship (IBTrACS)を、ウェブで閲覧しやすい形式に変換したものです。

最終更新日:2021-10-27